sensor_id;sensor_type;location;lat;lon;timestamp;P1;durP1;ratioP1;P2;durP2;ratioP2
78549;SDS011;68091;52.130;5.570;2023-03-01T00:01:50;21.10;;;11.55;;
78549;SDS011;68091;52.130;5.570;2023-03-01T00:04:15;19.63;;;11.55;;
78549;SDS011;68091;52.130;5.570;2023-03-01T00:06:44;16.27;;;9.93;;
78549;SDS011;68091;52.130;5.570;2023-03-01T00:09:13;18.40;;;10.10;;
78549;SDS011;68091;52.130;5.570;2023-03-01T00:11:42;21.40;;;10.82;;
78549;SDS011;68091;52.130;5.570;2023-03-01T00:14:08;17.02;;;10.50;;
78549;SDS011;68091;52.130;5.570;2023-03-01T00:16:38;17.85;;;10.82;;
78549;SDS011;68091;52.130;5.570;2023-03-01T00:19:07;16.48;;;10.43;;
78549;SDS011;68091;52.130;5.570;2023-03-01T00:21:37;17.15;;;10.63;;
78549;SDS011;68091;52.130;5.570;2023-03-01T00:24:02;18.58;;;11.15;;
78549;SDS011;68091;52.130;5.570;2023-03-01T00:26:29;18.90;;;10.70;;
78549;SDS011;68091;52.130;5.570;2023-03-01T00:28:56;20.23;;;11.70;;
78549;SDS011;68091;52.130;5.570;2023-03-01T00:31:24;22.27;;;11.80;;
78549;SDS011;68091;52.130;5.570;2023-03-01T00:33:54;19.75;;;11.38;;
78549;SDS011;68091;52.130;5.570;2023-03-01T00:36:25;20.50;;;11.90;;
78549;SDS011;68091;52.130;5.570;2023-03-01T00:38:59;19.73;;;11.98;;
78549;SDS011;68091;52.130;5.570;2023-03-01T00:41:25;19.95;;;11.52;;
78549;SDS011;68091;52.130;5.570;2023-03-01T00:43:51;19.48;;;11.60;;
78549;SDS011;68091;52.130;5.570;2023-03-01T00:46:25;20.45;;;12.00;;
78549;SDS011;68091;52.130;5.570;2023-03-01T00:48:52;17.95;;;11.52;;
78549;SDS011;68091;52.130;5.570;2023-03-01T00:51:20;17.58;;;10.57;;
78549;SDS011;68091;52.130;5.570;2023-03-01T00:53:49;17.05;;;11.00;;
78549;SDS011;68091;52.130;5.570;2023-03-01T00:56:17;17.15;;;10.10;;
78549;SDS011;68091;52.130;5.570;2023-03-01T00:58:45;16.00;;;10.77;;
78549;SDS011;68091;52.130;5.570;2023-03-01T01:01:30;15.13;;;9.70;;
78549;SDS011;68091;52.130;5.570;2023-03-01T01:03:57;15.88;;;10.07;;
78549;SDS011;68091;52.130;5.570;2023-03-01T01:06:25;19.67;;;10.20;;
78549;SDS011;68091;52.130;5.570;2023-03-01T01:08:53;16.60;;;10.85;;
78549;SDS011;68091;52.130;5.570;2023-03-01T01:11:20;15.40;;;10.15;;
78549;SDS011;68091;52.130;5.570;2023-03-01T01:13:47;17.05;;;10.73;;
78549;SDS011;68091;52.130;5.570;2023-03-01T01:16:13;16.77;;;10.00;;
78549;SDS011;68091;52.130;5.570;2023-03-01T01:18:41;15.57;;;9.98;;
78549;SDS011;68091;52.130;5.570;2023-03-01T01:21:08;15.93;;;9.85;;
78549;SDS011;68091;52.130;5.570;2023-03-01T01:23:36;14.25;;;9.32;;
78549;SDS011;68091;52.130;5.570;2023-03-01T01:26:10;16.95;;;9.63;;
78549;SDS011;68091;52.130;5.570;2023-03-01T01:28:41;12.40;;;8.80;;
78549;SDS011;68091;52.130;5.570;2023-03-01T01:31:07;15.77;;;9.48;;
78549;SDS011;68091;52.130;5.570;2023-03-01T01:33:33;19.48;;;10.70;;
78549;SDS011;68091;52.130;5.570;2023-03-01T01:35:59;17.05;;;9.13;;
78549;SDS011;68091;52.130;5.570;2023-03-01T01:38:25;16.23;;;10.25;;
78549;SDS011;68091;52.130;5.570;2023-03-01T01:40:51;15.77;;;10.48;;
78549;SDS011;68091;52.130;5.570;2023-03-01T01:43:18;14.38;;;9.65;;
78549;SDS011;68091;52.130;5.570;2023-03-01T01:45:47;15.65;;;10.00;;
78549;SDS011;68091;52.130;5.570;2023-03-01T01:48:14;17.02;;;10.68;;
78549;SDS011;68091;52.130;5.570;2023-03-01T01:50:45;14.45;;;10.32;;
78549;SDS011;68091;52.130;5.570;2023-03-01T01:53:14;12.18;;;9.27;;
78549;SDS011;68091;52.130;5.570;2023-03-01T01:55:50;16.00;;;9.95;;
78549;SDS011;68091;52.130;5.570;2023-03-01T01:58:19;15.60;;;10.25;;
78549;SDS011;68091;52.130;5.570;2023-03-01T02:00:46;17.50;;;10.38;;
78549;SDS011;68091;52.130;5.570;2023-03-01T02:03:14;14.45;;;10.18;;
78549;SDS011;68091;52.130;5.570;2023-03-01T02:05:52;14.63;;;10.18;;
78549;SDS011;68091;52.130;5.570;2023-03-01T02:08:32;13.45;;;10.10;;
78549;SDS011;68091;52.130;5.570;2023-03-01T02:11:02;16.05;;;10.40;;
78549;SDS011;68091;52.130;5.570;2023-03-01T02:13:31;16.17;;;10.15;;
78549;SDS011;68091;52.130;5.570;2023-03-01T02:15:58;17.30;;;10.55;;
78549;SDS011;68091;52.130;5.570;2023-03-01T02:18:27;16.52;;;10.43;;
78549;SDS011;68091;52.130;5.570;2023-03-01T02:23:52;17.90;;;11.10;;
78549;SDS011;68091;52.130;5.570;2023-03-01T02:28:54;24.23;;;12.32;;
78549;SDS011;68091;52.130;5.570;2023-03-01T02:31:20;18.98;;;11.50;;
78549;SDS011;68091;52.130;5.570;2023-03-01T02:34:06;20.85;;;11.55;;
78549;SDS011;68091;52.130;5.570;2023-03-01T02:36:44;15.30;;;10.48;;
78549;SDS011;68091;52.130;5.570;2023-03-01T02:39:14;16.52;;;10.75;;
78549;SDS011;68091;52.130;5.570;2023-03-01T02:41:47;16.15;;;9.98;;
78549;SDS011;68091;52.130;5.570;2023-03-01T02:44:22;16.15;;;10.60;;
78549;SDS011;68091;52.130;5.570;2023-03-01T02:46:52;13.30;;;9.65;;
78549;SDS011;68091;52.130;5.570;2023-03-01T02:57:32;13.05;;;9.85;;
78549;SDS011;68091;52.130;5.570;2023-03-01T03:00:03;14.82;;;9.57;;
78549;SDS011;68091;52.130;5.570;2023-03-01T03:02:34;17.70;;;10.63;;
78549;SDS011;68091;52.130;5.570;2023-03-01T03:05:14;15.63;;;10.93;;
78549;SDS011;68091;52.130;5.570;2023-03-01T03:07:42;15.82;;;10.40;;
78549;SDS011;68091;52.130;5.570;2023-03-01T03:10:13;15.20;;;10.40;;
78549;SDS011;68091;52.130;5.570;2023-03-01T03:12:40;16.67;;;10.88;;
78549;SDS011;68091;52.130;5.570;2023-03-01T03:15:07;16.83;;;9.82;;
78549;SDS011;68091;52.130;5.570;2023-03-01T03:17:37;16.77;;;10.45;;
78549;SDS011;68091;52.130;5.570;2023-03-01T03:20:05;15.13;;;10.02;;
78549;SDS011;68091;52.130;5.570;2023-03-01T03:22:36;14.27;;;9.70;;
78549;SDS011;68091;52.130;5.570;2023-03-01T03:25:04;14.00;;;10.60;;
78549;SDS011;68091;52.130;5.570;2023-03-01T03:27:40;14.63;;;10.45;;
78549;SDS011;68091;52.130;5.570;2023-03-01T03:30:09;14.77;;;9.98;;
78549;SDS011;68091;52.130;5.570;2023-03-01T03:32:40;15.70;;;10.98;;
78549;SDS011;68091;52.130;5.570;2023-03-01T03:35:08;17.50;;;10.77;;
78549;SDS011;68091;52.130;5.570;2023-03-01T03:37:40;15.63;;;9.75;;
78549;SDS011;68091;52.130;5.570;2023-03-01T03:40:25;16.48;;;10.52;;
78549;SDS011;68091;52.130;5.570;2023-03-01T03:42:55;15.68;;;10.05;;
78549;SDS011;68091;52.130;5.570;2023-03-01T03:45:21;13.82;;;9.35;;
78549;SDS011;68091;52.130;5.570;2023-03-01T03:47:47;15.25;;;11.43;;
78549;SDS011;68091;52.130;5.570;2023-03-01T03:50:14;15.18;;;11.30;;
78549;SDS011;68091;52.130;5.570;2023-03-01T03:52:41;16.83;;;11.30;;
78549;SDS011;68091;52.130;5.570;2023-03-01T03:55:08;14.30;;;10.63;;
78549;SDS011;68091;52.130;5.570;2023-03-01T03:57:37;17.00;;;11.00;;
78549;SDS011;68091;52.130;5.570;2023-03-01T04:00:06;16.25;;;11.10;;
78549;SDS011;68091;52.130;5.570;2023-03-01T04:02:40;14.07;;;10.43;;
78549;SDS011;68091;52.130;5.570;2023-03-01T04:05:11;15.48;;;10.70;;
78549;SDS011;68091;52.130;5.570;2023-03-01T04:07:39;12.52;;;10.45;;
78549;SDS011;68091;52.130;5.570;2023-03-01T04:10:07;16.95;;;11.05;;
78549;SDS011;68091;52.130;5.570;2023-03-01T04:12:36;15.07;;;11.43;;
78549;SDS011;68091;52.130;5.570;2023-03-01T04:15:02;15.48;;;10.30;;
78549;SDS011;68091;52.130;5.570;2023-03-01T04:17:37;17.60;;;11.35;;
78549;SDS011;68091;52.130;5.570;2023-03-01T04:20:11;14.45;;;11.48;;
78549;SDS011;68091;52.130;5.570;2023-03-01T04:22:49;16.02;;;11.32;;
78549;SDS011;68091;52.130;5.570;2023-03-01T04:25:16;16.70;;;11.65;;
78549;SDS011;68091;52.130;5.570;2023-03-01T04:27:42;17.52;;;11.95;;
78549;SDS011;68091;52.130;5.570;2023-03-01T04:30:11;16.95;;;11.70;;
78549;SDS011;68091;52.130;5.570;2023-03-01T04:32:47;16.45;;;11.13;;
78549;SDS011;68091;52.130;5.570;2023-03-01T04:35:13;17.17;;;11.90;;
78549;SDS011;68091;52.130;5.570;2023-03-01T04:37:39;17.02;;;11.65;;
78549;SDS011;68091;52.130;5.570;2023-03-01T04:40:06;19.90;;;11.88;;
78549;SDS011;68091;52.130;5.570;2023-03-01T04:42:38;15.00;;;11.07;;
78549;SDS011;68091;52.130;5.570;2023-03-01T04:45:04;15.30;;;11.70;;
78549;SDS011;68091;52.130;5.570;2023-03-01T04:47:38;16.48;;;12.02;;
78549;SDS011;68091;52.130;5.570;2023-03-01T04:50:05;18.55;;;11.73;;
78549;SDS011;68091;52.130;5.570;2023-03-01T04:52:32;16.60;;;11.13;;
78549;SDS011;68091;52.130;5.570;2023-03-01T04:54:58;16.58;;;11.20;;
78549;SDS011;68091;52.130;5.570;2023-03-01T04:57:27;15.20;;;11.65;;
78549;SDS011;68091;52.130;5.570;2023-03-01T04:59:52;14.38;;;10.32;;
78549;SDS011;68091;52.130;5.570;2023-03-01T05:02:18;17.55;;;11.80;;
78549;SDS011;68091;52.130;5.570;2023-03-01T05:04:44;20.70;;;12.52;;
78549;SDS011;68091;52.130;5.570;2023-03-01T05:07:10;18.27;;;11.82;;
78549;SDS011;68091;52.130;5.570;2023-03-01T05:09:38;19.08;;;12.95;;
78549;SDS011;68091;52.130;5.570;2023-03-01T05:12:06;15.77;;;11.93;;
78549;SDS011;68091;52.130;5.570;2023-03-01T05:14:32;18.00;;;11.95;;
78549;SDS011;68091;52.130;5.570;2023-03-01T05:16:58;16.50;;;11.30;;
78549;SDS011;68091;52.130;5.570;2023-03-01T05:19:29;15.70;;;11.35;;
78549;SDS011;68091;52.130;5.570;2023-03-01T05:21:56;17.27;;;11.43;;
78549;SDS011;68091;52.130;5.570;2023-03-01T05:24:32;15.88;;;11.45;;
78549;SDS011;68091;52.130;5.570;2023-03-01T05:29:36;15.40;;;11.32;;
78549;SDS011;68091;52.130;5.570;2023-03-01T05:32:04;16.05;;;11.93;;
78549;SDS011;68091;52.130;5.570;2023-03-01T05:34:30;17.52;;;11.63;;
78549;SDS011;68091;52.130;5.570;2023-03-01T05:36:58;17.55;;;12.73;;
78549;SDS011;68091;52.130;5.570;2023-03-01T05:39:27;15.73;;;11.57;;
78549;SDS011;68091;52.130;5.570;2023-03-01T05:41:58;16.67;;;11.23;;
78549;SDS011;68091;52.130;5.570;2023-03-01T05:44:25;19.73;;;11.98;;
78549;SDS011;68091;52.130;5.570;2023-03-01T05:46:51;21.10;;;13.30;;
78549;SDS011;68091;52.130;5.570;2023-03-01T05:49:17;18.02;;;12.68;;
78549;SDS011;68091;52.130;5.570;2023-03-01T05:51:47;19.00;;;13.05;;
78549;SDS011;68091;52.130;5.570;2023-03-01T05:54:14;22.83;;;14.45;;
78549;SDS011;68091;52.130;5.570;2023-03-01T05:56:41;19.45;;;12.90;;
78549;SDS011;68091;52.130;5.570;2023-03-01T05:59:09;19.73;;;13.10;;
78549;SDS011;68091;52.130;5.570;2023-03-01T06:01:42;20.48;;;13.40;;
78549;SDS011;68091;52.130;5.570;2023-03-01T06:04:08;19.17;;;13.73;;
78549;SDS011;68091;52.130;5.570;2023-03-01T06:06:41;19.92;;;13.45;;
78549;SDS011;68091;52.130;5.570;2023-03-01T06:09:07;18.60;;;13.43;;
78549;SDS011;68091;52.130;5.570;2023-03-01T06:11:35;19.38;;;13.73;;
78549;SDS011;68091;52.130;5.570;2023-03-01T06:14:02;19.35;;;13.43;;
78549;SDS011;68091;52.130;5.570;2023-03-01T06:16:28;18.75;;;12.90;;
78549;SDS011;68091;52.130;5.570;2023-03-01T06:18:54;19.77;;;13.50;;
78549;SDS011;68091;52.130;5.570;2023-03-01T06:21:20;22.65;;;13.15;;
78549;SDS011;68091;52.130;5.570;2023-03-01T06:23:49;20.42;;;13.48;;
78549;SDS011;68091;52.130;5.570;2023-03-01T06:26:15;28.42;;;14.05;;
78549;SDS011;68091;52.130;5.570;2023-03-01T06:28:40;20.02;;;13.63;;
78549;SDS011;68091;52.130;5.570;2023-03-01T06:31:06;18.80;;;13.20;;
78549;SDS011;68091;52.130;5.570;2023-03-01T06:33:33;17.33;;;11.98;;
78549;SDS011;68091;52.130;5.570;2023-03-01T06:36:05;20.65;;;14.57;;
78549;SDS011;68091;52.130;5.570;2023-03-01T06:38:35;22.63;;;14.75;;
78549;SDS011;68091;52.130;5.570;2023-03-01T06:41:05;21.50;;;13.77;;
78549;SDS011;68091;52.130;5.570;2023-03-01T06:43:31;22.73;;;14.05;;
78549;SDS011;68091;52.130;5.570;2023-03-01T06:46:04;16.88;;;12.30;;
78549;SDS011;68091;52.130;5.570;2023-03-01T06:48:31;20.27;;;13.82;;
78549;SDS011;68091;52.130;5.570;2023-03-01T06:50:59;20.10;;;13.75;;
78549;SDS011;68091;52.130;5.570;2023-03-01T06:53:29;22.10;;;13.02;;
78549;SDS011;68091;52.130;5.570;2023-03-01T06:55:55;19.73;;;13.63;;
78549;SDS011;68091;52.130;5.570;2023-03-01T06:58:22;23.77;;;14.73;;
78549;SDS011;68091;52.130;5.570;2023-03-01T07:00:48;17.75;;;12.93;;
78549;SDS011;68091;52.130;5.570;2023-03-01T07:03:14;23.45;;;14.45;;
78549;SDS011;68091;52.130;5.570;2023-03-01T07:05:40;23.00;;;14.57;;
78549;SDS011;68091;52.130;5.570;2023-03-01T07:08:09;25.30;;;14.45;;
78549;SDS011;68091;52.130;5.570;2023-03-01T07:10:35;21.83;;;14.18;;
78549;SDS011;68091;52.130;5.570;2023-03-01T07:13:21;19.58;;;14.05;;
78549;SDS011;68091;52.130;5.570;2023-03-01T07:15:50;19.42;;;14.07;;
78549;SDS011;68091;52.130;5.570;2023-03-01T07:18:16;24.33;;;15.48;;
78549;SDS011;68091;52.130;5.570;2023-03-01T07:20:41;26.25;;;16.20;;
78549;SDS011;68091;52.130;5.570;2023-03-01T07:23:07;31.67;;;17.50;;
78549;SDS011;68091;52.130;5.570;2023-03-01T07:25:35;28.48;;;16.65;;
78549;SDS011;68091;52.130;5.570;2023-03-01T07:28:01;27.55;;;17.67;;
78549;SDS011;68091;52.130;5.570;2023-03-01T07:30:27;30.38;;;19.90;;
78549;SDS011;68091;52.130;5.570;2023-03-01T07:32:56;35.50;;;19.40;;
78549;SDS011;68091;52.130;5.570;2023-03-01T07:35:26;32.78;;;19.55;;
78549;SDS011;68091;52.130;5.570;2023-03-01T07:37:54;30.02;;;20.50;;
78549;SDS011;68091;52.130;5.570;2023-03-01T07:40:23;35.22;;;19.98;;
78549;SDS011;68091;52.130;5.570;2023-03-01T07:42:48;33.95;;;21.42;;
78549;SDS011;68091;52.130;5.570;2023-03-01T07:45:14;37.20;;;19.52;;
78549;SDS011;68091;52.130;5.570;2023-03-01T07:47:40;27.80;;;17.80;;
78549;SDS011;68091;52.130;5.570;2023-03-01T07:50:06;27.92;;;17.35;;
78549;SDS011;68091;52.130;5.570;2023-03-01T07:52:32;30.02;;;18.58;;
78549;SDS011;68091;52.130;5.570;2023-03-01T07:54:58;26.67;;;16.40;;
78549;SDS011;68091;52.130;5.570;2023-03-01T07:57:24;28.20;;;16.70;;
78549;SDS011;68091;52.130;5.570;2023-03-01T07:59:50;25.05;;;15.35;;
78549;SDS011;68091;52.130;5.570;2023-03-01T08:02:16;29.35;;;16.95;;
78549;SDS011;68091;52.130;5.570;2023-03-01T08:04:42;29.63;;;16.08;;
78549;SDS011;68091;52.130;5.570;2023-03-01T08:07:11;25.75;;;16.15;;
78549;SDS011;68091;52.130;5.570;2023-03-01T08:09:40;21.48;;;13.63;;
78549;SDS011;68091;52.130;5.570;2023-03-01T08:12:11;22.58;;;14.43;;
78549;SDS011;68091;52.130;5.570;2023-03-01T08:14:42;24.02;;;14.45;;
78549;SDS011;68091;52.130;5.570;2023-03-01T08:17:14;20.15;;;13.13;;
78549;SDS011;68091;52.130;5.570;2023-03-01T08:19:40;22.50;;;14.05;;
78549;SDS011;68091;52.130;5.570;2023-03-01T08:22:05;20.40;;;12.93;;
78549;SDS011;68091;52.130;5.570;2023-03-01T08:24:31;25.17;;;14.20;;
78549;SDS011;68091;52.130;5.570;2023-03-01T08:26:57;21.38;;;12.77;;
78549;SDS011;68091;52.130;5.570;2023-03-01T08:29:23;28.17;;;13.48;;
78549;SDS011;68091;52.130;5.570;2023-03-01T08:31:51;18.77;;;12.95;;
78549;SDS011;68091;52.130;5.570;2023-03-01T08:34:17;19.02;;;12.40;;
78549;SDS011;68091;52.130;5.570;2023-03-01T08:36:44;19.30;;;12.13;;
78549;SDS011;68091;52.130;5.570;2023-03-01T08:39:12;18.58;;;12.57;;
78549;SDS011;68091;52.130;5.570;2023-03-01T08:41:40;20.75;;;13.45;;
78549;SDS011;68091;52.130;5.570;2023-03-01T08:44:06;18.27;;;11.95;;
78549;SDS011;68091;52.130;5.570;2023-03-01T08:46:37;19.60;;;11.50;;
78549;SDS011;68091;52.130;5.570;2023-03-01T08:49:15;19.13;;;11.25;;
78549;SDS011;68091;52.130;5.570;2023-03-01T08:51:42;19.73;;;10.95;;
78549;SDS011;68091;52.130;5.570;2023-03-01T08:54:13;15.45;;;10.40;;
78549;SDS011;68091;52.130;5.570;2023-03-01T08:56:41;17.90;;;10.63;;
78549;SDS011;68091;52.130;5.570;2023-03-01T08:59:07;13.73;;;9.38;;
78549;SDS011;68091;52.130;5.570;2023-03-01T09:01:35;12.57;;;9.00;;
78549;SDS011;68091;52.130;5.570;2023-03-01T09:04:02;16.42;;;10.20;;
78549;SDS011;68091;52.130;5.570;2023-03-01T09:06:32;14.25;;;9.93;;
78549;SDS011;68091;52.130;5.570;2023-03-01T09:08:59;15.52;;;9.77;;
78549;SDS011;68091;52.130;5.570;2023-03-01T09:11:25;14.57;;;9.75;;
78549;SDS011;68091;52.130;5.570;2023-03-01T09:13:54;15.50;;;9.70;;
78549;SDS011;68091;52.130;5.570;2023-03-01T09:16:21;15.40;;;9.35;;
78549;SDS011;68091;52.130;5.570;2023-03-01T09:18:51;15.15;;;9.77;;
78549;SDS011;68091;52.130;5.570;2023-03-01T09:21:18;14.88;;;9.85;;
78549;SDS011;68091;52.130;5.570;2023-03-01T09:23:46;14.85;;;9.85;;
78549;SDS011;68091;52.130;5.570;2023-03-01T09:26:17;13.77;;;9.05;;
78549;SDS011;68091;52.130;5.570;2023-03-01T09:28:44;15.52;;;9.15;;
78549;SDS011;68091;52.130;5.570;2023-03-01T09:31:11;17.95;;;8.95;;
78549;SDS011;68091;52.130;5.570;2023-03-01T09:33:38;11.63;;;7.53;;
78549;SDS011;68091;52.130;5.570;2023-03-01T09:36:06;11.85;;;6.28;;
78549;SDS011;68091;52.130;5.570;2023-03-01T09:38:40;10.45;;;6.30;;
78549;SDS011;68091;52.130;5.570;2023-03-01T09:44:18;10.52;;;6.50;;
78549;SDS011;68091;52.130;5.570;2023-03-01T09:47:01;9.38;;;6.50;;
78549;SDS011;68091;52.130;5.570;2023-03-01T09:49:28;12.00;;;6.80;;
78549;SDS011;68091;52.130;5.570;2023-03-01T09:54:37;20.65;;;6.55;;
78549;SDS011;68091;52.130;5.570;2023-03-01T09:57:11;11.57;;;6.70;;
78549;SDS011;68091;52.130;5.570;2023-03-01T09:59:57;10.90;;;6.15;;
78549;SDS011;68091;52.130;5.570;2023-03-01T10:02:39;8.98;;;5.75;;
78549;SDS011;68091;52.130;5.570;2023-03-01T10:05:13;9.30;;;5.47;;
78549;SDS011;68091;52.130;5.570;2023-03-01T10:10:40;9.05;;;5.03;;
78549;SDS011;68091;52.130;5.570;2023-03-01T10:15:55;6.25;;;4.50;;
78549;SDS011;68091;52.130;5.570;2023-03-01T10:18:27;6.32;;;4.47;;
78549;SDS011;68091;52.130;5.570;2023-03-01T10:21:01;8.65;;;4.75;;
78549;SDS011;68091;52.130;5.570;2023-03-01T10:23:33;7.80;;;5.07;;
78549;SDS011;68091;52.130;5.570;2023-03-01T10:29:06;10.93;;;4.63;;
78549;SDS011;68091;52.130;5.570;2023-03-01T10:31:41;8.05;;;5.07;;
78549;SDS011;68091;52.130;5.570;2023-03-01T10:34:15;9.75;;;4.75;;
78549;SDS011;68091;52.130;5.570;2023-03-01T10:36:44;8.70;;;4.50;;
78549;SDS011;68091;52.130;5.570;2023-03-01T10:39:20;8.07;;;4.03;;
78549;SDS011;68091;52.130;5.570;2023-03-01T10:41:53;8.68;;;5.03;;
78549;SDS011;68091;52.130;5.570;2023-03-01T10:44:48;5.85;;;3.90;;
78549;SDS011;68091;52.130;5.570;2023-03-01T10:47:15;9.65;;;4.50;;
78549;SDS011;68091;52.130;5.570;2023-03-01T10:50:04;8.20;;;4.13;;
78549;SDS011;68091;52.130;5.570;2023-03-01T10:52:35;6.40;;;3.88;;
78549;SDS011;68091;52.130;5.570;2023-03-01T10:58:38;5.32;;;3.60;;
78549;SDS011;68091;52.130;5.570;2023-03-01T11:03:44;6.60;;;4.03;;
78549;SDS011;68091;52.130;5.570;2023-03-01T11:08:37;6.15;;;3.55;;
78549;SDS011;68091;52.130;5.570;2023-03-01T11:16:31;9.50;;;4.78;;
78549;SDS011;68091;52.130;5.570;2023-03-01T11:21:34;6.80;;;4.30;;
78549;SDS011;68091;52.130;5.570;2023-03-01T11:24:15;8.15;;;5.03;;
78549;SDS011;68091;52.130;5.570;2023-03-01T11:26:55;8.60;;;5.53;;
78549;SDS011;68091;52.130;5.570;2023-03-01T11:29:38;7.68;;;5.55;;
78549;SDS011;68091;52.130;5.570;2023-03-01T11:32:12;8.88;;;5.13;;
78549;SDS011;68091;52.130;5.570;2023-03-01T11:37:47;6.78;;;4.32;;
78549;SDS011;68091;52.130;5.570;2023-03-01T11:40:27;8.55;;;4.65;;
78549;SDS011;68091;52.130;5.570;2023-03-01T11:45:43;9.10;;;5.28;;
78549;SDS011;68091;52.130;5.570;2023-03-01T11:48:34;6.40;;;4.15;;
78549;SDS011;68091;52.130;5.570;2023-03-01T11:54:13;6.07;;;4.35;;
78549;SDS011;68091;52.130;5.570;2023-03-01T11:56:55;7.28;;;4.57;;
78549;SDS011;68091;52.130;5.570;2023-03-01T12:11:58;5.68;;;4.10;;
78549;SDS011;68091;52.130;5.570;2023-03-01T12:20:17;8.30;;;3.90;;
78549;SDS011;68091;52.130;5.570;2023-03-01T12:25:53;9.80;;;4.95;;
78549;SDS011;68091;52.130;5.570;2023-03-01T12:28:55;6.22;;;3.90;;
78549;SDS011;68091;52.130;5.570;2023-03-01T12:34:26;7.57;;;4.57;;
78549;SDS011;68091;52.130;5.570;2023-03-01T12:50:55;6.40;;;4.20;;
78549;SDS011;68091;52.130;5.570;2023-03-01T12:53:28;6.65;;;4.45;;
78549;SDS011;68091;52.130;5.570;2023-03-01T12:56:10;6.57;;;3.90;;
78549;SDS011;68091;52.130;5.570;2023-03-01T12:58:46;5.82;;;3.97;;
78549;SDS011;68091;52.130;5.570;2023-03-01T13:07:34;5.22;;;3.63;;
78549;SDS011;68091;52.130;5.570;2023-03-01T13:17:55;7.90;;;3.80;;
78549;SDS011;68091;52.130;5.570;2023-03-01T13:26:11;7.15;;;4.18;;
78549;SDS011;68091;52.130;5.570;2023-03-01T13:28:47;7.35;;;4.20;;
78549;SDS011;68091;52.130;5.570;2023-03-01T13:33:44;7.70;;;4.30;;
78549;SDS011;68091;52.130;5.570;2023-03-01T13:36:10;8.70;;;4.57;;
78549;SDS011;68091;52.130;5.570;2023-03-01T13:38:58;9.45;;;4.25;;
78549;SDS011;68091;52.130;5.570;2023-03-01T13:46:58;7.53;;;3.75;;
78549;SDS011;68091;52.130;5.570;2023-03-01T13:49:29;7.80;;;3.95;;
78549;SDS011;68091;52.130;5.570;2023-03-01T13:52:06;5.43;;;3.67;;
78549;SDS011;68091;52.130;5.570;2023-03-01T13:54:59;6.70;;;3.88;;
78549;SDS011;68091;52.130;5.570;2023-03-01T13:57:37;4.70;;;3.17;;
78549;SDS011;68091;52.130;5.570;2023-03-01T14:00:06;6.15;;;3.90;;
78549;SDS011;68091;52.130;5.570;2023-03-01T14:05:42;5.57;;;3.88;;
78549;SDS011;68091;52.130;5.570;2023-03-01T14:08:27;7.43;;;4.25;;
78549;SDS011;68091;52.130;5.570;2023-03-01T14:13:43;6.78;;;4.40;;
78549;SDS011;68091;52.130;5.570;2023-03-01T14:19:28;5.75;;;3.90;;
78549;SDS011;68091;52.130;5.570;2023-03-01T14:21:58;5.65;;;3.60;;
78549;SDS011;68091;52.130;5.570;2023-03-01T14:24:29;6.85;;;3.97;;
78549;SDS011;68091;52.130;5.570;2023-03-01T14:27:00;6.45;;;3.95;;
78549;SDS011;68091;52.130;5.570;2023-03-01T14:29:39;8.18;;;4.68;;
78549;SDS011;68091;52.130;5.570;2023-03-01T14:32:39;9.15;;;4.10;;
78549;SDS011;68091;52.130;5.570;2023-03-01T14:34:58;7.70;;;4.57;;
78549;SDS011;68091;52.130;5.570;2023-03-01T14:37:33;6.20;;;4.38;;
78549;SDS011;68091;52.130;5.570;2023-03-01T14:40:02;8.52;;;4.47;;
78549;SDS011;68091;52.130;5.570;2023-03-01T14:42:31;12.88;;;5.43;;
78549;SDS011;68091;52.130;5.570;2023-03-01T14:45:00;6.97;;;4.40;;
78549;SDS011;68091;52.130;5.570;2023-03-01T14:47:29;7.90;;;4.65;;
78549;SDS011;68091;52.130;5.570;2023-03-01T14:50:00;6.68;;;4.60;;
78549;SDS011;68091;52.130;5.570;2023-03-01T14:52:39;7.07;;;4.38;;
78549;SDS011;68091;52.130;5.570;2023-03-01T14:55:20;6.75;;;4.43;;
78549;SDS011;68091;52.130;5.570;2023-03-01T14:57:51;8.98;;;4.72;;
78549;SDS011;68091;52.130;5.570;2023-03-01T15:00:27;10.38;;;4.80;;
78549;SDS011;68091;52.130;5.570;2023-03-01T15:02:56;6.90;;;4.60;;
78549;SDS011;68091;52.130;5.570;2023-03-01T15:05:29;9.48;;;4.60;;
78549;SDS011;68091;52.130;5.570;2023-03-01T15:07:58;6.07;;;4.22;;
78549;SDS011;68091;52.130;5.570;2023-03-01T15:10:30;6.03;;;4.15;;
78549;SDS011;68091;52.130;5.570;2023-03-01T15:15:50;5.85;;;4.20;;
78549;SDS011;68091;52.130;5.570;2023-03-01T15:18:19;6.70;;;3.92;;
78549;SDS011;68091;52.130;5.570;2023-03-01T15:20:50;8.70;;;4.40;;
78549;SDS011;68091;52.130;5.570;2023-03-01T15:26:02;6.38;;;4.47;;
78549;SDS011;68091;52.130;5.570;2023-03-01T15:28:33;8.20;;;3.85;;
78549;SDS011;68091;52.130;5.570;2023-03-01T15:33:41;5.47;;;3.97;;
78549;SDS011;68091;52.130;5.570;2023-03-01T15:39:23;5.43;;;3.80;;
78549;SDS011;68091;52.130;5.570;2023-03-01T15:41:51;6.88;;;4.45;;
78549;SDS011;68091;52.130;5.570;2023-03-01T15:44:23;7.35;;;4.65;;
78549;SDS011;68091;52.130;5.570;2023-03-01T15:46:51;7.68;;;4.82;;
78549;SDS011;68091;52.130;5.570;2023-03-01T15:52:13;8.88;;;4.78;;
78549;SDS011;68091;52.130;5.570;2023-03-01T15:54:53;10.75;;;5.95;;
78549;SDS011;68091;52.130;5.570;2023-03-01T15:57:22;11.18;;;5.18;;
78549;SDS011;68091;52.130;5.570;2023-03-01T15:59:47;8.68;;;5.25;;
78549;SDS011;68091;52.130;5.570;2023-03-01T16:02:19;6.97;;;4.97;;
78549;SDS011;68091;52.130;5.570;2023-03-01T16:04:52;6.97;;;4.75;;
78549;SDS011;68091;52.130;5.570;2023-03-01T16:07:18;6.97;;;4.63;;
78549;SDS011;68091;52.130;5.570;2023-03-01T16:09:44;9.27;;;5.00;;
78549;SDS011;68091;52.130;5.570;2023-03-01T16:12:14;5.95;;;4.53;;
78549;SDS011;68091;52.130;5.570;2023-03-01T16:14:41;7.05;;;4.93;;
78549;SDS011;68091;52.130;5.570;2023-03-01T16:17:07;7.10;;;4.28;;
78549;SDS011;68091;52.130;5.570;2023-03-01T16:19:35;8.65;;;4.80;;
78549;SDS011;68091;52.130;5.570;2023-03-01T16:22:02;7.15;;;4.63;;
78549;SDS011;68091;52.130;5.570;2023-03-01T16:24:29;7.63;;;4.60;;
78549;SDS011;68091;52.130;5.570;2023-03-01T16:26:55;8.45;;;4.85;;
78549;SDS011;68091;52.130;5.570;2023-03-01T16:29:20;7.72;;;4.90;;
78549;SDS011;68091;52.130;5.570;2023-03-01T16:31:46;8.57;;;5.60;;
78549;SDS011;68091;52.130;5.570;2023-03-01T16:34:12;9.73;;;5.15;;
78549;SDS011;68091;52.130;5.570;2023-03-01T16:36:38;10.68;;;5.28;;
78549;SDS011;68091;52.130;5.570;2023-03-01T16:39:04;11.40;;;6.22;;
78549;SDS011;68091;52.130;5.570;2023-03-01T16:41:31;10.73;;;5.85;;
78549;SDS011;68091;52.130;5.570;2023-03-01T16:43:57;9.65;;;5.20;;
78549;SDS011;68091;52.130;5.570;2023-03-01T16:46:24;9.00;;;5.68;;
78549;SDS011;68091;52.130;5.570;2023-03-01T16:48:51;9.75;;;5.57;;
78549;SDS011;68091;52.130;5.570;2023-03-01T16:51:23;14.82;;;5.82;;
78549;SDS011;68091;52.130;5.570;2023-03-01T16:53:50;9.35;;;6.07;;
78549;SDS011;68091;52.130;5.570;2023-03-01T16:56:16;8.65;;;5.82;;
78549;SDS011;68091;52.130;5.570;2023-03-01T16:58:43;11.45;;;6.25;;
78549;SDS011;68091;52.130;5.570;2023-03-01T17:01:17;10.18;;;6.40;;
78549;SDS011;68091;52.130;5.570;2023-03-01T17:03:44;12.15;;;6.00;;
78549;SDS011;68091;52.130;5.570;2023-03-01T17:06:15;8.93;;;5.75;;
78549;SDS011;68091;52.130;5.570;2023-03-01T17:08:43;14.73;;;5.65;;
78549;SDS011;68091;52.130;5.570;2023-03-01T17:11:16;11.23;;;5.85;;
78549;SDS011;68091;52.130;5.570;2023-03-01T17:13:49;10.02;;;6.60;;